Time;durP1;ratioP1;P1;durP2;ratioP2;P2;SDS_P1;SDS_P2;PMS_P1;PMS_P2;Temp;Humidity;BMP_temperature;BMP_pressure;BME280_temperature;BME280_humidity;BME280_pressure;Samples;Min_cycle;Max_cycle;Signal;HPM_P1;HPM_P2
2021/07/14 00:01:19;;;;;;;16.05;12.63;;;29.20;63.90;;;;;;5095148;28;20411;-85
2021/07/14 00:03:45;;;;;;;16.90;12.70;;;29.20;65.00;;;;;;5113291;28;20399;-85
2021/07/14 00:06:11;;;;;;;18.58;13.05;;;29.20;65.30;;;;;;5113518;28;20040;-81
2021/07/14 00:08:37;;;;;;;17.55;13.02;;;29.10;65.00;;;;;;5113600;28;20061;-81
2021/07/14 00:11:03;;;;;;;16.88;12.93;;;29.00;64.90;;;;;;5113628;28;20507;-80
2021/07/14 00:13:46;;;;;;;18.67;13.23;;;29.10;64.60;;;;;;5113818;28;20126;-83
2021/07/14 00:24:27;;;;;;;19.90;12.97;;;29.20;63.70;;;;;;5115233;28;20089;-88
2021/07/14 00:26:53;;;;;;;18.75;13.80;;;29.20;63.60;;;;;;5113590;28;20039;-85
2021/07/14 00:29:19;;;;;;;19.42;14.05;;;29.20;63.70;;;;;;5113735;28;20411;-80
2021/07/14 00:31:45;;;;;;;22.20;14.07;;;29.10;64.00;;;;;;5113011;28;20152;-84
2021/07/14 00:34:11;;;;;;;17.00;12.75;;;29.10;64.10;;;;;;5113739;28;20127;-81
2021/07/14 00:36:38;;;;;;;16.58;14.02;;;29.10;64.30;;;;;;5113465;28;20492;-82
2021/07/14 00:39:04;;;;;;;16.48;12.82;;;29.10;64.50;;;;;;5113190;28;20531;-84
2021/07/14 00:41:30;;;;;;;22.52;14.43;;;29.10;64.50;;;;;;5113494;28;20168;-86
2021/07/14 00:43:56;;;;;;;22.75;15.07;;;29.20;64.00;;;;;;5113646;28;20116;-89
2021/07/14 00:46:26;;;;;;;18.83;14.15;;;29.10;63.40;;;;;;5113315;28;20043;-87
2021/07/14 00:48:56;;;;;;;19.20;14.45;;;29.10;63.90;;;;;;5093085;28;20036;-85
2021/07/14 00:51:22;;;;;;;20.15;13.77;;;29.10;63.90;;;;;;5093495;28;20405;-85
2021/07/14 00:53:50;;;;;;;19.42;13.90;;;29.10;64.00;;;;;;5093271;28;20078;-88
2021/07/14 00:56:15;;;;;;;17.33;13.63;;;29.10;63.80;;;;;;5092858;28;20464;-85
2021/07/14 00:58:42;;;;;;;20.13;14.75;;;29.10;63.70;;;;;;5092846;28;20051;-83
2021/07/14 01:01:08;;;;;;;21.83;14.32;;;29.10;63.60;;;;;;5094322;28;20036;-86
2021/07/14 01:03:42;;;;;;;18.13;14.52;;;29.10;63.30;;;;;;5114134;28;20040;-83
2021/07/14 01:06:16;;;;;;;21.30;13.80;;;29.10;63.50;;;;;;5114075;28;20112;-84
2021/07/14 01:09:02;;;;;;;20.50;15.23;;;29.10;63.40;;;;;;5113522;28;20407;-84
2021/07/14 01:11:32;;;;;;;21.10;14.50;;;29.10;63.20;;;;;;5113389;28;20031;-85
2021/07/14 01:14:35;;;;;;;18.02;14.30;;;29.20;63.30;;;;;;5113106;28;20388;-82
2021/07/14 01:17:16;;;;;;;21.80;14.60;;;29.20;63.30;;;;;;5114678;28;20067;-88
2021/07/14 01:20:04;;;;;;;19.90;14.40;;;29.20;63.50;;;;;;5117114;28;20044;-84
2021/07/14 01:23:08;;;;;;;19.13;14.52;;;29.20;63.00;;;;;;5117055;28;20080;-85
2021/07/14 01:25:58;;;;;;;17.08;14.43;;;29.20;62.90;;;;;;5116074;28;20122;-84
2021/07/14 01:28:27;;;;;;;17.88;13.88;;;29.10;63.00;;;;;;5117066;28;20496;-81
2021/07/14 01:30:54;;;;;;;17.70;13.95;;;29.20;63.30;;;;;;5116394;28;20050;-84
2021/07/14 01:33:36;;;;;;;17.77;13.95;;;29.20;63.40;;;;;;5117076;28;20069;-83
2021/07/14 01:36:07;;;;;;;20.60;13.50;;;29.20;63.50;;;;;;5117111;28;20487;-82
2021/07/14 01:38:35;;;;;;;19.02;14.45;;;29.20;63.30;;;;;;5097729;28;20063;-82
2021/07/14 01:41:03;;;;;;;18.65;13.52;;;29.20;63.10;;;;;;5098415;28;20046;-82
2021/07/14 01:43:36;;;;;;;24.17;14.15;;;29.20;63.10;;;;;;5116575;28;20036;-83
2021/07/14 01:46:05;;;;;;;18.02;13.95;;;29.20;63.20;;;;;;5117121;28;20027;-82
2021/07/14 01:48:33;;;;;;;14.85;13.35;;;29.20;63.30;;;;;;5116254;28;20480;-83
2021/07/14 01:51:01;;;;;;;19.80;13.70;;;29.20;63.30;;;;;;5098465;28;20027;-83
2021/07/14 01:53:27;;;;;;;18.05;14.05;;;29.20;63.40;;;;;;5116035;28;20039;-80
2021/07/14 01:55:55;;;;;;;20.42;14.15;;;29.20;63.70;;;;;;5116516;28;20046;-82
2021/07/14 01:58:27;;;;;;;17.83;13.88;;;29.20;63.60;;;;;;5115792;28;20567;-82
2021/07/14 02:00:54;;;;;;;21.48;14.40;;;29.20;63.70;;;;;;5098494;28;20062;-83
2021/07/14 02:06:01;;;;;;;19.45;14.30;;;29.20;64.20;;;;;;5116200;28;20495;-84
2021/07/14 02:08:28;;;;;;;20.17;15.27;;;29.20;64.30;;;;;;5097569;28;20146;-85
2021/07/14 02:10:56;;;;;;;30.05;15.27;;;29.20;64.20;;;;;;5115981;28;20395;-85
2021/07/14 02:13:24;;;;;;;23.15;15.32;;;29.10;64.10;;;;;;5097630;28;20054;-84
2021/07/14 02:15:52;;;;;;;20.73;15.35;;;29.10;63.80;;;;;;5115942;28;20038;-82
2021/07/14 02:18:22;;;;;;;24.85;15.65;;;29.10;64.00;;;;;;5115484;28;20055;-82
2021/07/14 02:20:48;;;;;;;23.02;16.05;;;29.10;64.10;;;;;;5116113;28;20054;-83
2021/07/14 02:23:14;;;;;;;28.30;16.10;;;29.10;63.90;;;;;;5115553;28;20576;-84
2021/07/14 02:25:40;;;;;;;20.48;15.98;;;29.00;63.70;;;;;;5115176;28;20042;-82
2021/07/14 02:28:06;;;;;;;21.02;15.02;;;29.00;64.10;;;;;;5115245;28;20039;-83
2021/07/14 02:30:32;;;;;;;18.80;15.07;;;29.00;64.30;;;;;;5115717;28;20060;-84
2021/07/14 02:33:04;;;;;;;28.23;17.23;;;29.10;64.50;;;;;;5116130;28;20028;-83
2021/07/14 02:35:33;;;;;;;41.30;18.85;;;29.10;63.90;;;;;;5115544;28;20070;-80
2021/07/14 02:38:02;;;;;;;25.58;16.17;;;29.20;63.60;;;;;;5114447;28;20122;-84
2021/07/14 02:40:48;;;;;;;25.00;15.77;;;29.30;63.50;;;;;;5107901;28;20132;-84
2021/07/14 02:43:14;;;;;;;18.08;14.73;;;29.40;63.60;;;;;;5095497;28;20551;-86
2021/07/14 02:45:44;;;;;;;21.90;15.20;;;29.50;63.10;;;;;;5093750;28;20028;-83
2021/07/14 02:48:11;;;;;;;20.45;14.73;;;29.60;63.20;;;;;;5094910;28;20165;-83
2021/07/14 02:50:38;;;;;;;21.13;15.40;;;29.70;62.80;;;;;;5094500;28;20123;-86
2021/07/14 02:53:11;;;;;;;23.30;15.02;;;;;;;;;;5094065;28;20103;-84
2021/07/14 02:55:39;;;;;;;19.08;15.93;;;30.00;61.90;;;;;;5105343;28;20039;-85
2021/07/14 02:58:08;;;;;;;18.65;13.90;;;30.00;62.30;;;;;;5115135;28;20047;-80
2021/07/14 03:00:38;;;;;;;19.98;14.18;;;30.10;62.00;;;;;;5115350;28;20077;-89
2021/07/14 03:03:09;;;;;;;18.65;14.63;;;30.20;62.50;;;;;;5115342;28;20084;-84
2021/07/14 03:05:35;;;;;;;18.35;15.18;;;30.30;62.90;;;;;;5115438;28;20039;-84
2021/07/14 03:08:05;;;;;;;20.10;14.52;;;30.30;62.50;;;;;;5115045;28;20039;-82
2021/07/14 03:10:32;;;;;;;20.45;15.43;;;30.40;62.90;;;;;;5096110;28;20035;-81
2021/07/14 03:13:02;;;;;;;19.55;14.35;;;30.20;62.50;;;;;;5115098;28;20050;-82
2021/07/14 03:15:30;;;;;;;20.60;14.60;;;30.20;62.70;;;;;;5114228;28;20111;-77
2021/07/14 03:17:58;;;;;;;19.77;14.75;;;30.20;62.80;;;;;;5114208;28;20529;-84
2021/07/14 03:20:25;;;;;;;20.70;15.50;;;30.10;63.00;;;;;;5114700;28;20040;-82
2021/07/14 03:22:52;;;;;;;17.17;15.10;;;30.10;63.00;;;;;;5114801;28;20106;-78
2021/07/14 03:25:19;;;;;;;21.58;15.07;;;30.20;93.30;;;;;;5113497;28;20039;-82
2021/07/14 03:27:48;;;;;;;22.20;15.65;;;30.40;91.40;;;;;;5106503;28;20495;-82
2021/07/14 03:30:16;;;;;;;21.52;16.13;;;;;;;;;;5109415;28;20036;-85
2021/07/14 03:32:43;;;;;;;27.75;15.27;;;;;;;;;;5095619;28;20035;-83
2021/07/14 03:35:12;;;;;;;22.30;15.55;;;30.20;88.80;;;;;;5113903;28;20036;-80
2021/07/14 03:37:38;;;;;;;22.55;16.05;;;30.30;91.30;;;;;;5113208;28;20031;-78
2021/07/14 03:40:06;;;;;;;19.50;14.40;;;;;;;;;;5112682;28;20036;-77
2021/07/14 03:42:34;;;;;;;19.75;14.75;;;;;;;;;;5113629;28;20031;-80
2021/07/14 03:45:01;;;;;;;25.05;15.13;;;;;;;;;;5113767;28;20040;-84
2021/07/14 03:47:27;;;;;;;22.20;15.82;;;;;;;;;;5115603;28;20046;-86
2021/07/14 03:49:55;;;;;;;19.35;15.10;;;;;;;;;;5114668;28;20032;-88
2021/07/14 03:52:22;;;;;;;17.95;14.23;;;;;;;;;;5095675;28;20031;-88
2021/07/14 03:54:49;;;;;;;20.25;14.55;;;30.80;59.80;;;;;;5114011;28;20032;-83
2021/07/14 03:57:16;;;;;;;21.73;14.98;;;30.90;60.50;;;;;;5113992;28;20031;-79
2021/07/14 03:59:42;;;;;;;20.65;14.27;;;31.00;60.50;;;;;;5078665;28;20096;-77
2021/07/14 04:02:11;;;;;;;15.38;13.57;;;31.10;60.70;;;;;;5114120;28;20115;-77
2021/07/14 04:04:38;;;;;;;19.40;14.50;;;31.20;60.70;;;;;;5114045;28;20027;-79
2021/07/14 04:07:14;;;;;;;19.05;14.70;;;31.20;60.30;;;;;;5114369;28;20038;-78
2021/07/14 04:09:44;;;;;;;21.20;14.93;;;31.20;60.30;;;;;;5112916;28;20039;-77
2021/07/14 04:12:10;;;;;;;20.85;13.38;;;31.40;60.70;;;;;;5113702;28;20039;-80
2021/07/14 04:14:36;;;;;;;14.73;12.88;;;31.40;60.60;;;;;;5113814;28;20583;-81
2021/07/14 04:17:02;;;;;;;16.13;13.45;;;31.50;61.20;;;;;;5113451;28;20093;-78
2021/07/14 04:19:28;;;;;;;16.58;13.25;;;31.60;61.30;;;;;;5116324;27;20051;-80
2021/07/14 04:21:54;;;;;;;17.30;12.63;;;31.70;61.30;;;;;;5112361;27;20038;-80
2021/07/14 04:24:20;;;;;;;18.35;12.55;;;31.80;61.90;;;;;;5113240;28;20047;-78
2021/07/14 04:26:47;;;;;;;14.00;12.02;;;31.90;61.40;;;;;;5113488;28;20031;-79
2021/07/14 04:29:13;;;;;;;16.83;13.15;;;32.00;61.40;;;;;;5113143;28;20027;-78
2021/07/14 04:31:40;;;;;;;13.68;12.27;;;32.10;61.10;;;;;;5113815;28;20111;-79
2021/07/14 04:34:07;;;;;;;16.13;12.05;;;32.10;60.50;;;;;;5113294;28;20081;-78
2021/07/14 04:36:34;;;;;;;14.85;11.25;;;32.20;60.80;;;;;;5112925;28;20047;-78
2021/07/14 04:39:01;;;;;;;17.65;12.85;;;32.20;60.90;;;;;;5094908;28;20135;-77
2021/07/14 04:41:27;;;;;;;16.13;12.40;;;32.30;60.70;;;;;;5112948;28;20049;-77
2021/07/14 04:43:56;;;;;;;15.70;11.02;;;32.40;60.80;;;;;;5113236;28;20020;-83
2021/07/14 04:46:22;;;;;;;17.67;12.38;;;32.40;60.60;;;;;;5113259;28;20063;-78
2021/07/14 04:48:48;;;;;;;17.60;12.00;;;32.50;60.70;;;;;;5113803;28;20043;-81
2021/07/14 04:51:14;;;;;;;16.40;12.20;;;32.60;60.60;;;;;;5115580;28;20035;-81
2021/07/14 04:53:40;;;;;;;18.30;12.57;;;32.60;60.90;;;;;;5118397;28;20043;-85
2021/07/14 04:56:06;;;;;;;16.05;12.02;;;32.70;61.20;;;;;;5116552;28;20122;-87
2021/07/14 04:58:31;;;;;;;14.45;11.80;;;32.80;61.50;;;;;;5116815;28;20073;-86
2021/07/14 05:00:57;;;;;;;17.10;11.93;;;32.90;61.70;;;;;;5116694;28;20036;-78
2021/07/14 05:03:24;;;;;;;21.45;12.35;;;32.90;61.20;;;;;;5117281;28;20180;-86
2021/07/14 05:05:51;;;;;;;18.10;12.35;;;33.00;60.90;;;;;;5116888;28;20507;-79
2021/07/14 05:08:17;;;;;;;15.48;11.70;;;33.00;60.20;;;;;;5116835;28;20050;-77
2021/07/14 05:10:43;;;;;;;13.43;11.63;;;33.10;60.20;;;;;;5116553;28;20035;-79
2021/07/14 05:13:09;;;;;;;17.27;12.77;;;33.20;60.00;;;;;;5116474;28;20123;-79
2021/07/14 05:15:35;;;;;;;22.45;13.75;;;33.20;60.00;;;;;;5098060;28;20569;-84
2021/07/14 05:18:01;;;;;;;15.77;13.07;;;33.20;60.00;;;;;;5116403;28;20059;-80
2021/07/14 05:20:28;;;;;;;14.70;12.50;;;33.30;59.30;;;;;;5116865;28;20411;-85
2021/07/14 05:22:54;;;;;;;14.48;11.70;;;33.30;59.10;;;;;;5116952;28;20424;-79
2021/07/14 05:25:19;;;;;;;17.60;12.35;;;33.30;58.80;;;;;;5098099;28;20032;-86
2021/07/14 05:27:46;;;;;;;18.30;12.63;;;33.40;58.90;;;;;;5098070;28;20044;-79
2021/07/14 05:30:13;;;;;;;14.57;11.35;;;33.40;58.70;;;;;;5115723;28;20027;-76
2021/07/14 05:32:39;;;;;;;16.77;11.20;;;33.50;58.80;;;;;;5097701;28;20036;-77
2021/07/14 05:35:06;;;;;;;15.95;11.18;;;33.50;58.70;;;;;;5115273;28;20036;-76
2021/07/14 05:37:32;;;;;;;13.10;10.80;;;33.50;58.60;;;;;;5096949;28;20084;-75
2021/07/14 05:39:58;;;;;;;17.23;11.43;;;33.60;58.40;;;;;;5116207;28;20039;-75
2021/07/14 05:42:24;;;;;;;15.68;10.80;;;33.70;58.40;;;;;;5098135;28;20121;-77
2021/07/14 05:44:50;;;;;;;15.82;10.70;;;33.70;58.30;;;;;;5097384;28;20042;-75
2021/07/14 05:47:16;;;;;;;12.40;11.13;;;33.70;58.30;;;;;;5116725;28;20111;-73
2021/07/14 05:49:43;;;;;;;13.30;11.45;;;33.70;58.10;;;;;;5097955;28;20130;-84
2021/07/14 05:52:11;;;;;;;12.77;10.90;;;33.80;58.00;;;;;;5116137;28;20446;-75
2021/07/14 05:54:37;;;;;;;13.45;10.65;;;33.80;58.30;;;;;;5115923;28;20474;-79
2021/07/14 05:57:03;;;;;;;13.07;10.38;;;33.90;58.30;;;;;;5116094;28;20089;-77
2021/07/14 05:59:29;;;;;;;14.10;10.60;;;34.00;58.10;;;;;;5097893;28;20043;-75
2021/07/14 06:01:55;;;;;;;11.50;9.95;;;34.00;58.00;;;;;;5115002;28;20043;-76
2021/07/14 06:04:21;;;;;;;11.25;9.63;;;34.00;57.70;;;;;;5115689;28;20031;-76
2021/07/14 06:06:47;;;;;;;14.02;9.73;;;34.10;57.40;;;;;;5116391;28;20441;-76
2021/07/14 06:09:13;;;;;;;14.35;9.88;;;34.10;57.20;;;;;;5116023;28;20035;-78
2021/07/14 06:11:40;;;;;;;12.40;9.38;;;34.20;57.00;;;;;;5115964;28;20044;-78
2021/07/14 06:14:06;;;;;;;11.43;9.38;;;34.20;57.50;;;;;;5097708;28;20035;-78
2021/07/14 06:16:32;;;;;;;10.40;9.07;;;34.20;56.50;;;;;;5109320;27;20065;-80
2021/07/14 06:18:58;;;;;;;10.15;9.13;;;34.20;56.40;;;;;;5079515;28;20051;-80
2021/07/14 06:21:24;;;;;;;16.40;9.38;;;34.20;55.90;;;;;;5113806;28;20522;-78
2021/07/14 06:23:50;;;;;;;10.32;8.45;;;34.20;55.90;;;;;;5113933;28;20032;-78
2021/07/14 06:26:17;;;;;;;10.88;8.23;;;34.30;56.10;;;;;;5113991;28;20036;-77
2021/07/14 06:28:44;;;;;;;9.95;8.60;;;34.30;55.90;;;;;;5113493;28;20391;-77
2021/07/14 06:31:10;;;;;;;9.73;8.73;;;34.30;56.20;;;;;;5113636;28;20039;-80
2021/07/14 06:33:38;;;;;;;11.15;8.30;;;34.40;56.20;;;;;;5094568;27;20031;-80
2021/07/14 06:36:04;;;;;;;10.48;7.78;;;34.40;56.00;;;;;;5099131;27;20031;-79
2021/07/14 06:38:31;;;;;;;12.40;8.63;;;34.40;55.80;;;;;;5118765;27;20040;-74
2021/07/14 06:40:58;;;;;;;8.52;7.68;;;34.40;55.70;;;;;;5093229;28;20039;-76
2021/07/14 06:43:41;;;;;;;8.75;7.45;;;34.40;55.40;;;;;;5093097;28;20040;-78
2021/07/14 06:46:09;;;;;;;7.82;7.13;;;34.40;55.30;;;;;;5093489;28;20038;-81
2021/07/14 06:48:35;;;;;;;7.53;6.82;;;34.40;54.80;;;;;;5108812;28;20040;-79
2021/07/14 06:51:01;;;;;;;10.93;6.78;;;34.40;54.20;;;;;;5092909;28;20032;-79
2021/07/14 06:53:27;;;;;;;6.95;6.35;;;34.40;53.90;;;;;;5093040;28;20028;-82
2021/07/14 06:55:53;;;;;;;8.23;6.45;;;34.40;53.80;;;;;;5093266;28;20040;-76
2021/07/14 06:58:18;;;;;;;8.00;6.05;;;34.40;53.60;;;;;;5093111;28;20094;-73
2021/07/14 07:00:44;;;;;;;7.38;6.63;;;34.40;53.40;;;;;;5092834;28;20434;-78
2021/07/14 07:03:10;;;;;;;6.82;6.22;;;34.40;53.10;;;;;;5074849;28;20448;-77
2021/07/14 07:05:36;;;;;;;7.05;6.35;;;34.40;52.90;;;;;;5109033;28;20119;-87
2021/07/14 07:08:03;;;;;;;7.38;6.50;;;34.40;52.90;;;;;;5092680;28;20036;-75
2021/07/14 07:10:29;;;;;;;7.40;5.88;;;34.40;52.80;;;;;;5113394;27;20038;-78
2021/07/14 07:12:55;;;;;;;8.40;6.40;;;34.40;52.80;;;;;;5101344;28;20039;-79
2021/07/14 07:15:21;;;;;;;8.38;6.18;;;34.40;52.50;;;;;;5108398;28;20036;-83
2021/07/14 07:17:47;;;;;;;7.38;6.30;;;34.40;52.50;;;;;;5100613;27;20059;-78
2021/07/14 07:20:17;;;;;;;8.63;6.30;;;34.40;52.30;;;;;;5112846;28;20051;-77
2021/07/14 07:22:46;;;;;;;7.07;6.15;;;34.40;52.30;;;;;;5094364;28;20031;-78
2021/07/14 07:25:14;;;;;;;7.40;6.70;;;34.40;52.20;;;;;;5112809;28;20032;-73
2021/07/14 07:27:41;;;;;;;8.45;6.15;;;34.40;52.30;;;;;;5094601;28;20035;-77
2021/07/14 07:30:10;;;;;;;7.72;6.00;;;34.40;52.30;;;;;;5094465;28;20071;-76
2021/07/14 07:32:46;;;;;;;6.35;5.75;;;34.40;52.20;;;;;;5094183;28;20067;-77
2021/07/14 07:35:16;;;;;;;6.35;5.85;;;34.40;52.20;;;;;;5075004;28;20078;-73
2021/07/14 07:37:47;;;;;;;9.10;6.80;;;34.40;51.80;;;;;;5092090;28;20034;-73
2021/07/14 07:43:35;;;;;;;7.10;6.28;;;34.40;52.00;;;;;;5092194;28;20046;-79
2021/07/14 07:46:01;;;;;;;8.48;5.90;;;34.40;51.60;;;;;;5093420;28;20408;-76
2021/07/14 07:48:28;;;;;;;7.22;6.40;;;34.30;51.60;;;;;;5112008;28;20036;-75
2021/07/14 07:50:54;;;;;;;7.70;6.90;;;34.30;51.60;;;;;;5111870;28;20039;-79
2021/07/14 07:53:21;;;;;;;7.70;6.72;;;34.20;52.80;;;;;;5112343;28;20168;-79
2021/07/14 07:55:48;;;;;;;7.65;6.78;;;34.20;53.20;;;;;;5091190;28;20040;-74
2021/07/14 07:58:17;;;;;;;11.20;6.50;;;34.20;52.10;;;;;;5091637;28;20530;-73
2021/07/14 08:00:44;;;;;;;9.85;6.53;;;34.20;51.80;;;;;;5107505;28;20129;-76
2021/07/14 08:03:10;;;;;;;8.52;6.10;;;34.20;52.30;;;;;;5092912;27;20036;-76
2021/07/14 08:05:36;;;;;;;9.50;6.53;;;34.10;52.00;;;;;;5073664;28;20059;-76
2021/07/14 08:08:03;;;;;;;7.57;6.88;;;34.10;52.70;;;;;;5091485;28;20086;-76
2021/07/14 08:10:29;;;;;;;6.80;6.13;;;34.10;52.70;;;;;;5107013;28;21009;-75
2021/07/14 08:12:55;;;;;;;7.18;6.55;;;34.10;52.80;;;;;;5107470;28;20419;-77
2021/07/14 08:15:21;;;;;;;7.25;6.55;;;34.10;52.50;;;;;;5073346;28;20036;-76
2021/07/14 08:17:47;;;;;;;8.15;6.82;;;34.10;53.80;;;;;;5091425;28;20086;-77
2021/07/14 08:20:13;;;;;;;7.35;6.63;;;34.10;53.20;;;;;;5095296;28;20060;-80
2021/07/14 08:22:40;;;;;;;10.18;6.65;;;34.10;55.20;;;;;;5092215;28;20047;-78
2021/07/14 08:25:09;;;;;;;7.97;6.90;;;34.00;54.60;;;;;;5092737;28;20055;-78
2021/07/14 08:27:38;;;;;;;7.38;6.68;;;34.00;53.80;;;;;;5110534;28;20127;-77
2021/07/14 08:30:09;;;;;;;7.28;6.68;;;34.00;54.60;;;;;;5076761;28;20044;-78
2021/07/14 08:32:35;;;;;;;7.35;6.65;;;33.90;55.30;;;;;;5076989;28;20035;-79
2021/07/14 08:35:03;;;;;;;8.18;7.00;;;33.90;56.00;;;;;;5112076;28;20032;-79
2021/07/14 08:37:30;;;;;;;7.30;6.68;;;33.90;57.10;;;;;;5111421;28;20059;-77
2021/07/14 08:39:56;;;;;;;9.02;6.80;;;33.90;56.80;;;;;;5094922;28;20036;-78
2021/07/14 08:42:27;;;;;;;9.52;6.93;;;33.90;57.50;;;;;;5091364;28;20028;-77
2021/07/14 08:44:54;;;;;;;8.70;7.78;;;33.90;56.20;;;;;;5091193;28;20040;-77
2021/07/14 08:47:21;;;;;;;8.20;6.85;;;33.90;54.90;;;;;;5091440;28;20039;-76
2021/07/14 08:49:52;;;;;;;7.80;6.93;;;33.90;54.30;;;;;;5090973;28;20047;-77
2021/07/14 08:52:19;;;;;;;8.45;7.60;;;33.80;54.10;;;;;;5090743;28;20035;-77
2021/07/14 08:54:46;;;;;;;9.10;8.13;;;33.80;54.60;;;;;;5091131;28;20039;-75
2021/07/14 08:57:15;;;;;;;11.07;7.18;;;33.80;55.90;;;;;;5092401;28;20377;-75
2021/07/14 08:59:41;;;;;;;8.23;7.15;;;33.80;57.90;;;;;;5092113;28;20573;-75
2021/07/14 09:02:11;;;;;;;8.35;7.38;;;33.80;56.80;;;;;;5103954;28;20035;-74
2021/07/14 09:04:37;;;;;;;8.43;7.45;;;33.70;56.40;;;;;;5110198;28;20085;-75
2021/07/14 09:07:06;;;;;;;10.10;7.38;;;33.70;56.40;;;;;;5111084;28;20040;-76
2021/07/14 09:09:34;;;;;;;8.13;7.07;;;33.70;56.30;;;;;;5091281;28;20045;-75
2021/07/14 09:12:01;;;;;;;7.35;6.65;;;33.60;56.20;;;;;;5092430;28;20077;-75
2021/07/14 09:14:32;;;;;;;9.05;6.88;;;33.60;54.20;;;;;;5111018;28;20039;-75
2021/07/14 09:17:01;;;;;;;8.27;7.47;;;33.60;55.20;;;;;;5092700;28;20154;-76
2021/07/14 09:19:30;;;;;;;7.78;6.93;;;33.60;56.00;;;;;;5092925;28;20261;-77
2021/07/14 09:21:58;;;;;;;7.32;6.53;;;33.50;53.50;;;;;;5110804;28;20031;-76
2021/07/14 09:24:28;;;;;;;8.00;7.22;;;33.50;54.80;;;;;;5092755;28;20036;-76
2021/07/14 09:26:57;;;;;;;7.97;7.07;;;33.50;54.70;;;;;;5076348;28;20032;-77
2021/07/14 09:29:24;;;;;;;10.55;7.32;;;33.50;55.40;;;;;;5092677;28;20036;-77
2021/07/14 09:31:51;;;;;;;7.63;7.03;;;33.50;54.30;;;;;;5075855;28;20036;-77
2021/07/14 09:34:31;;;;;;;8.10;7.32;;;33.40;53.50;;;;;;5092935;28;20032;-76
2021/07/14 09:37:03;;;;;;;9.05;7.68;;;33.40;54.80;;;;;;5110949;28;20583;-76
2021/07/14 09:39:40;;;;;;;8.02;7.22;;;33.40;54.50;;;;;;5097143;28;20040;-76
2021/07/14 09:42:09;;;;;;;8.10;7.35;;;33.40;54.60;;;;;;5114982;28;20096;-77
2021/07/14 09:44:44;;;;;;;9.07;7.70;;;33.40;54.60;;;;;;5114696;28;20043;-83
2021/07/14 09:47:11;;;;;;;;;;;33.40;54.80;;;;;;5096985;28;20496;-74
2021/07/14 09:49:37;;;;;;;8.85;8.15;;;33.40;55.00;;;;;;5114897;28;20299;-74
2021/07/14 09:52:17;;;;;;;10.57;8.07;;;33.50;55.80;;;;;;5095456;28;20040;-75
2021/07/14 09:54:43;;;;;;;8.93;7.97;;;33.40;55.90;;;;;;5095872;28;20043;-75
2021/07/14 09:57:18;;;;;;;8.80;8.05;;;33.40;55.90;;;;;;5114433;28;20039;-76
2021/07/14 09:59:45;;;;;;;8.55;7.75;;;33.40;55.70;;;;;;5078067;28;20386;-76
2021/07/14 10:02:14;;;;;;;10.35;7.90;;;33.40;54.20;;;;;;5113636;28;20040;-80
2021/07/14 10:04:41;;;;;;;9.48;8.00;;;33.40;54.50;;;;;;5096027;28;20031;-77
2021/07/14 10:07:15;;;;;;;8.48;7.68;;;33.40;54.40;;;;;;5095755;28;20036;-76
2021/07/14 10:09:43;;;;;;;8.77;7.88;;;33.40;54.30;;;;;;5118943;27;20494;-80
2021/07/14 10:12:31;;;;;;;10.05;7.93;;;33.40;53.80;;;;;;5126208;27;20123;-76
2021/07/14 10:15:20;;;;;;;8.57;7.78;;;33.40;53.80;;;;;;5096738;28;20040;-76
2021/07/14 10:17:51;;;;;;;9.15;7.80;;;33.40;53.30;;;;;;5115262;28;20052;-75
2021/07/14 10:20:35;;;;;;;11.98;8.13;;;33.50;53.40;;;;;;5078511;28;20933;-77
2021/07/14 10:23:03;;;;;;;10.38;7.70;;;33.40;54.50;;;;;;5095942;28;20074;-76
2021/07/14 10:25:31;;;;;;;9.82;8.45;;;33.40;53.90;;;;;;5114191;28;20056;-80
2021/07/14 10:27:58;;;;;;;9.05;7.93;;;33.40;53.90;;;;;;5102568;28;20036;-87
2021/07/14 10:30:25;;;;;;;8.27;7.68;;;33.40;53.60;;;;;;5093786;28;20027;-76
2021/07/14 10:32:53;;;;;;;8.82;7.90;;;33.40;54.30;;;;;;5112574;28;20031;-80
2021/07/14 10:35:25;;;;;;;10.15;7.70;;;33.40;55.30;;;;;;5079254;28;20068;-81
2021/07/14 10:38:01;;;;;;;9.43;8.52;;;33.40;56.80;;;;;;5113800;28;20036;-82
2021/07/14 10:40:27;;;;;;;13.20;8.35;;;33.40;56.90;;;;;;5114371;28;20048;-80
2021/07/14 10:42:57;;;;;;;8.85;8.05;;;33.40;56.90;;;;;;5114012;28;20381;-74
2021/07/14 10:45:23;;;;;;;10.10;8.82;;;33.40;58.40;;;;;;5113459;28;20104;-77
2021/07/14 10:47:50;;;;;;;9.50;8.60;;;33.40;57.40;;;;;;5113186;28;20027;-76
2021/07/14 10:50:18;;;;;;;8.90;7.88;;;33.30;58.60;;;;;;5077934;28;20060;-76
2021/07/14 10:52:45;;;;;;;8.73;7.70;;;33.30;59.60;;;;;;5078120;28;20434;-75
